Terminal Aerodrome Forecast
Issued by NWS

Home | Current Version | Previous Version | Text Only | Print | Product List | Glossary On
Versions: 1 2 3 4 5 6 7 8 9 10 11 12 13 14 15 16 17 18 19 20 21 22 23
925
FTUS46 KMFR 230833 AAA
TAFRBG
TAF AMD
KRBG 230833Z 2309/2406 VRB02KT P6SM VCSH BKN006 BKN025 BKN035
      TEMPO 2309/2311 SCT006 BKN025 BKN035
     FM231100 VRB03KT P6SM BKN006 OVC025
     FM231400 00000KT 4SM BR BKN006 OVC020
     FM231800 00000KT P6SM BKN030 OVC050
     FM232200 VRB03KT P6SM -SHRA BKN035 BKN050=

USA.gov is the U.S. government's official web portal to all federal, state and local government web resources and services.